createdAt,value
2022-07-28T00:00:09.353Z,25.35
2022-07-28T00:02:17.275Z,25.35
2022-07-28T00:03:03.907Z,25.35
2022-07-28T00:03:50.669Z,25.35
2022-07-28T00:04:37.139Z,25.34
2022-07-28T00:05:21.231Z,25.35
2022-07-28T00:06:10.003Z,25.33
2022-07-28T00:07:11.053Z,25.34
2022-07-28T00:08:03.881Z,25.34
2022-07-28T00:08:57.086Z,25.34
2022-07-28T00:11:06.935Z,25.35
2022-07-28T00:12:05.301Z,25.34
2022-07-28T00:13:03.993Z,25.34
2022-07-28T00:13:51.243Z,25.34
2022-07-28T00:14:40.134Z,25.34
2022-07-28T00:15:25.763Z,25.34
2022-07-28T00:16:13.590Z,25.33
2022-07-28T00:17:01.072Z,25.35
2022-07-28T00:17:49.191Z,25.34
2022-07-28T00:18:33.115Z,25.34
2022-07-28T00:19:21.056Z,25.34
2022-07-28T00:20:08.516Z,25.34
2022-07-28T00:21:00.332Z,25.35
2022-07-28T00:21:53.557Z,25.34
2022-07-28T00:22:38.017Z,25.35
2022-07-28T00:23:38.533Z,25.35
2022-07-28T00:24:28.903Z,25.34
2022-07-28T00:25:28.890Z,25.34
2022-07-28T00:26:16.011Z,25.34
2022-07-28T00:27:02.383Z,25.35
2022-07-28T00:27:47.130Z,25.33
2022-07-28T00:28:36.185Z,25.34
2022-07-28T00:29:49.972Z,25.34
2022-07-28T00:30:35.376Z,25.35
2022-07-28T00:31:23.980Z,25.34
2022-07-28T00:32:14.027Z,25.34
2022-07-28T00:33:02.353Z,25.35
2022-07-28T00:33:49.554Z,25.35
2022-07-28T00:34:34.665Z,25.34
2022-07-28T00:35:29.074Z,25.34
2022-07-28T00:36:14.284Z,25.34
2022-07-28T00:37:06.774Z,25.34
2022-07-28T00:38:01.298Z,25.34
2022-07-28T00:39:15.946Z,25.35
2022-07-28T00:40:11.044Z,25.33
2022-07-28T00:41:51.408Z,25.34
2022-07-28T00:42:22.855Z,25.33
2022-07-28T00:42:54.288Z,25.33
2022-07-28T00:43:25.754Z,25.33
2022-07-28T00:43:57.168Z,25.34
2022-07-28T00:44:28.571Z,25.33
2022-07-28T00:44:59.990Z,25.33
2022-07-28T00:45:31.404Z,25.33
2022-07-28T00:46:02.973Z,25.33
2022-07-28T00:46:34.544Z,25.33
2022-07-28T00:47:06.163Z,25.33
2022-07-28T00:47:37.696Z,25.33
2022-07-28T00:49:23.481Z,25.33
2022-07-28T00:50:17.475Z,25.32
2022-07-28T00:51:14.755Z,25.33
2022-07-28T00:52:00.797Z,25.33
2022-07-28T00:52:45.448Z,25.33
2022-07-28T00:54:34.219Z,25.33
2022-07-28T00:55:31.175Z,25.32
2022-07-28T00:56:13.448Z,25.31
2022-07-28T00:56:51.382Z,25.31
2022-07-28T00:57:27.948Z,25.31
2022-07-28T00:58:04.809Z,25.32
2022-07-28T00:58:41.201Z,25.31
2022-07-28T00:59:17.209Z,25.31
2022-07-28T00:59:53.869Z,25.32
2022-07-28T01:00:30.484Z,25.31
2022-07-28T01:01:07.283Z,25.32
2022-07-28T01:01:44.112Z,25.31
2022-07-28T01:02:20.530Z,25.32
2022-07-28T01:02:56.743Z,25.32
2022-07-28T01:03:33.605Z,25.32
2022-07-28T01:04:10.841Z,25.32
2022-07-28T01:04:48.424Z,25.32
2022-07-28T01:05:43.365Z,25.32
2022-07-28T01:06:21.638Z,25.31
2022-07-28T01:07:03.609Z,25.33
2022-07-28T01:07:40.702Z,25.32
2022-07-28T01:08:17.475Z,25.31
2022-07-28T01:08:53.812Z,25.31
2022-07-28T01:09:29.935Z,25.31
2022-07-28T01:10:06.590Z,25.31
2022-07-28T01:10:46.683Z,25.31
2022-07-28T01:11:24.067Z,25.31
2022-07-28T01:12:00.519Z,25.31
2022-07-28T01:12:40.582Z,25.31
2022-07-28T01:13:19.660Z,25.31
2022-07-28T01:13:59.395Z,25.31
2022-07-28T01:14:35.312Z,25.31
2022-07-28T01:15:11.959Z,25.31
2022-07-28T01:15:48.883Z,25.31
2022-07-28T01:16:26.012Z,25.30
2022-07-28T01:17:06.032Z,25.31
2022-07-28T01:17:43.899Z,25.31
2022-07-28T01:18:27.676Z,25.31
2022-07-28T01:19:06.547Z,25.31
2022-07-28T01:19:42.292Z,25.31
2022-07-28T01:20:19.078Z,25.31
2022-07-28T01:20:54.905Z,25.30
2022-07-28T01:21:31.758Z,25.30
2022-07-28T01:22:08.066Z,25.30
2022-07-28T01:22:44.891Z,25.30
2022-07-28T01:23:22.156Z,25.30
2022-07-28T01:24:02.904Z,25.29
2022-07-28T01:24:38.625Z,25.30
2022-07-28T01:25:14.616Z,25.30
2022-07-28T01:25:50.828Z,25.30
2022-07-28T01:26:27.510Z,25.31
2022-07-28T01:27:04.573Z,25.30
2022-07-28T01:27:43.855Z,25.29
2022-07-28T01:28:20.793Z,25.30
2022-07-28T01:28:56.824Z,25.30
2022-07-28T01:29:32.702Z,25.30
2022-07-28T01:30:08.660Z,25.30
2022-07-28T01:30:45.827Z,25.29
2022-07-28T01:31:22.435Z,25.30
2022-07-28T01:31:58.684Z,25.30
2022-07-28T01:32:35.414Z,25.29
2022-07-28T01:33:13.319Z,25.30
2022-07-28T01:33:53.459Z,25.29
2022-07-28T01:34:32.210Z,25.30
2022-07-28T01:35:10.368Z,25.29
2022-07-28T01:35:46.128Z,25.29
2022-07-28T01:36:22.258Z,25.29
2022-07-28T01:36:59.784Z,25.29
2022-07-28T01:37:37.200Z,25.29
2022-07-28T01:38:16.777Z,25.29
2022-07-28T01:38:59.177Z,25.29
2022-07-28T01:39:39.490Z,25.29
2022-07-28T01:40:17.830Z,25.28
2022-07-28T01:40:54.086Z,25.29
2022-07-28T01:41:30.903Z,25.29
2022-07-28T01:42:07.228Z,25.28
2022-07-28T01:42:44.225Z,25.29
2022-07-28T01:43:20.248Z,25.29
2022-07-28T01:43:57.183Z,25.29
2022-07-28T01:44:33.740Z,25.29
2022-07-28T01:45:10.563Z,25.28
2022-07-28T01:45:46.081Z,25.29
2022-07-28T01:46:22.144Z,25.28
2022-07-28T01:46:58.763Z,25.27
2022-07-28T01:47:35.593Z,25.28
2022-07-28T01:48:11.976Z,25.28
2022-07-28T01:48:50.549Z,25.28
2022-07-28T01:49:29.026Z,25.28
2022-07-28T01:50:06.665Z,25.28
2022-07-28T01:50:44.048Z,25.27
2022-07-28T01:51:21.079Z,25.28
2022-07-28T01:52:00.119Z,25.27
2022-07-28T01:52:41.378Z,25.27
2022-07-28T01:53:21.632Z,25.27
2022-07-28T01:54:02.530Z,25.28
2022-07-28T01:54:44.462Z,25.27
2022-07-28T01:55:27.217Z,25.27
2022-07-28T01:56:03.760Z,25.27
2022-07-28T01:56:40.430Z,25.27
2022-07-28T01:57:16.972Z,25.27
2022-07-28T01:57:53.256Z,25.26
2022-07-28T01:58:29.945Z,25.27
2022-07-28T01:59:05.958Z,25.27
2022-07-28T01:59:42.233Z,25.26
2022-07-28T02:00:18.279Z,25.27
2022-07-28T02:00:54.702Z,25.27
2022-07-28T02:01:30.990Z,25.27
2022-07-28T02:02:07.980Z,25.27
2022-07-28T02:02:44.216Z,25.26
2022-07-28T02:03:21.055Z,25.28
2022-07-28T02:03:56.979Z,25.27
2022-07-28T02:04:33.811Z,25.27
2022-07-28T02:05:10.399Z,25.26
2022-07-28T02:05:46.386Z,25.26
2022-07-28T02:06:22.791Z,25.27
2022-07-28T02:06:59.010Z,25.27
2022-07-28T02:07:35.390Z,25.26
2022-07-28T02:08:11.498Z,25.27
2022-07-28T02:08:48.582Z,25.26
2022-07-28T02:09:27.871Z,25.26
2022-07-28T02:10:06.250Z,25.27
2022-07-28T02:10:48.761Z,25.26
2022-07-28T02:11:32.649Z,25.26
2022-07-28T02:12:13.039Z,25.27
2022-07-28T02:12:54.424Z,25.26
2022-07-28T02:13:36.946Z,25.26
2022-07-28T02:14:15.465Z,25.27
2022-07-28T02:14:52.294Z,25.26
2022-07-28T02:15:31.323Z,25.27
2022-07-28T02:16:11.178Z,25.25
2022-07-28T02:16:52.783Z,25.25
2022-07-28T02:17:33.113Z,25.26
2022-07-28T02:18:14.416Z,25.26
2022-07-28T02:18:53.690Z,25.26
2022-07-28T02:19:31.306Z,25.26
2022-07-28T02:20:07.414Z,25.26
2022-07-28T02:20:43.603Z,25.26
2022-07-28T02:21:19.975Z,25.24
2022-07-28T02:21:56.566Z,25.25
2022-07-28T02:22:32.988Z,25.25
2022-07-28T02:23:09.246Z,25.26
2022-07-28T02:23:45.674Z,25.25
2022-07-28T02:24:21.923Z,25.25
2022-07-28T02:24:58.632Z,25.25
2022-07-28T02:25:34.237Z,25.24
2022-07-28T02:26:10.839Z,25.25
2022-07-28T02:26:47.643Z,25.25
2022-07-28T02:27:24.259Z,25.25
2022-07-28T02:28:01.609Z,25.25
2022-07-28T02:28:42.598Z,25.25
2022-07-28T02:29:49.174Z,25.25
2022-07-28T02:30:19.364Z,25.24
2022-07-28T02:30:55.306Z,25.24
2022-07-28T02:31:32.001Z,25.24
2022-07-28T02:32:17.131Z,25.24
2022-07-28T02:33:03.797Z,25.25
2022-07-28T02:33:59.942Z,25.24
2022-07-28T02:34:36.530Z,25.24
2022-07-28T02:35:13.496Z,25.23
2022-07-28T02:35:50.442Z,25.23
2022-07-28T02:36:26.471Z,25.24
2022-07-28T02:37:03.365Z,25.23
2022-07-28T02:37:40.749Z,25.24
2022-07-28T02:38:17.218Z,25.25
2022-07-28T02:38:54.094Z,25.23
2022-07-28T02:39:30.892Z,25.23
2022-07-28T02:40:07.437Z,25.23
2022-07-28T02:40:44.541Z,25.23
2022-07-28T02:41:20.612Z,25.24
2022-07-28T02:41:57.363Z,25.23
2022-07-28T02:42:33.722Z,25.23
2022-07-28T02:43:10.085Z,25.23
2022-07-28T02:43:49.695Z,25.23
2022-07-28T02:44:29.260Z,25.23
2022-07-28T02:45:07.509Z,25.23
2022-07-28T02:45:47.037Z,25.23
2022-07-28T02:46:23.107Z,25.23
2022-07-28T02:46:58.887Z,25.23
2022-07-28T02:47:34.539Z,25.23
2022-07-28T02:48:12.380Z,25.23
2022-07-28T02:48:48.742Z,25.24
2022-07-28T02:49:25.106Z,25.23
2022-07-28T02:50:01.684Z,25.23
2022-07-28T02:50:38.591Z,25.22
2022-07-28T02:51:15.597Z,25.24
2022-07-28T02:51:51.342Z,25.23
2022-07-28T02:52:27.096Z,25.22
2022-07-28T02:53:15.484Z,25.22
2022-07-28T02:53:52.055Z,25.23
2022-07-28T02:54:29.056Z,25.22
2022-07-28T02:55:05.855Z,25.22
2022-07-28T02:55:43.858Z,25.22
2022-07-28T02:56:21.308Z,25.22
2022-07-28T02:56:57.737Z,25.22
2022-07-28T02:57:33.801Z,25.22
2022-07-28T02:58:10.839Z,25.22
2022-07-28T02:58:47.397Z,25.22
2022-07-28T02:59:25.031Z,25.22
2022-07-28T03:00:02.025Z,25.22
2022-07-28T03:00:38.505Z,25.22
2022-07-28T03:01:15.935Z,25.21
2022-07-28T03:01:53.033Z,25.22
2022-07-28T03:02:29.126Z,25.21
2022-07-28T03:03:05.214Z,25.22
2022-07-28T03:03:44.132Z,25.22
2022-07-28T03:04:19.592Z,25.22
2022-07-28T03:04:57.217Z,25.22
2022-07-28T03:05:34.849Z,25.21
2022-07-28T03:06:13.206Z,25.21
2022-07-28T03:06:51.329Z,25.21
2022-07-28T03:07:30.557Z,25.22
2022-07-28T03:08:11.722Z,25.21
2022-07-28T03:08:52.925Z,25.21
2022-07-28T03:09:35.836Z,25.20
2022-07-28T03:10:14.450Z,25.21
2022-07-28T03:10:50.799Z,25.21
2022-07-28T03:11:27.103Z,25.21
2022-07-28T03:12:03.361Z,25.21
2022-07-28T03:12:40.199Z,25.21
2022-07-28T03:13:16.605Z,25.21
2022-07-28T03:13:54.218Z,25.20
2022-07-28T03:14:32.381Z,25.20
2022-07-28T03:15:09.611Z,25.20
2022-07-28T03:15:48.046Z,25.19
2022-07-28T03:16:26.204Z,25.19
2022-07-28T03:17:04.445Z,25.20
2022-07-28T03:17:47.187Z,25.19
2022-07-28T03:18:27.442Z,25.19
2022-07-28T03:19:09.790Z,25.19
2022-07-28T03:19:51.758Z,25.19
2022-07-28T03:20:35.861Z,25.19
2022-07-28T03:21:13.801Z,25.18
2022-07-28T03:21:50.985Z,25.19
2022-07-28T03:22:27.852Z,25.18
2022-07-28T03:23:05.249Z,25.19
2022-07-28T03:23:41.810Z,25.18
2022-07-28T03:24:19.006Z,25.18
2022-07-28T03:24:56.557Z,25.19
2022-07-28T03:25:33.678Z,25.18
2022-07-28T03:26:09.906Z,25.19
2022-07-28T03:26:46.811Z,25.18
2022-07-28T03:27:25.138Z,25.18
2022-07-28T03:28:08.773Z,25.18
2022-07-28T03:28:50.263Z,25.19
2022-07-28T03:29:27.492Z,25.18
2022-07-28T03:30:04.488Z,25.18
2022-07-28T03:30:41.033Z,25.18
2022-07-28T03:32:07.501Z,25.19
2022-07-28T03:32:44.697Z,25.18
2022-07-28T03:33:22.044Z,25.19
2022-07-28T03:33:58.569Z,25.18
2022-07-28T03:34:35.180Z,25.18
2022-07-28T03:35:11.429Z,25.18
2022-07-28T03:35:48.299Z,25.18
2022-07-28T03:36:25.170Z,25.18
2022-07-28T03:37:02.142Z,25.18
2022-07-28T03:37:39.171Z,25.18
2022-07-28T03:38:18.033Z,25.17
2022-07-28T03:38:54.191Z,25.17
2022-07-28T03:39:32.623Z,25.17
2022-07-28T03:40:08.995Z,25.17
2022-07-28T03:40:46.091Z,25.17
2022-07-28T03:41:21.994Z,25.17
2022-07-28T03:42:05.367Z,25.17
2022-07-28T03:42:42.210Z,25.18
2022-07-28T03:43:19.021Z,25.17
2022-07-28T03:43:55.647Z,25.18
2022-07-28T03:44:36.309Z,25.17
2022-07-28T03:45:14.078Z,25.16
2022-07-28T03:45:53.178Z,25.17
2022-07-28T03:46:41.675Z,25.17
2022-07-28T03:48:20.799Z,25.18
2022-07-28T03:48:59.562Z,25.17
2022-07-28T03:50:04.278Z,25.17
2022-07-28T03:50:42.726Z,25.16
2022-07-28T03:51:22.092Z,25.17
2022-07-28T03:51:58.278Z,25.17
2022-07-28T03:52:35.504Z,25.16
2022-07-28T03:53:12.542Z,25.17
2022-07-28T03:53:50.270Z,25.16
2022-07-28T03:54:27.943Z,25.15
2022-07-28T03:55:04.624Z,25.16
2022-07-28T03:55:42.234Z,25.17
2022-07-28T03:56:20.966Z,25.16
2022-07-28T03:56:57.062Z,25.16
2022-07-28T03:57:34.010Z,25.16
2022-07-28T03:58:11.357Z,25.16
2022-07-28T03:58:48.714Z,25.16
2022-07-28T03:59:26.482Z,25.16
2022-07-28T04:00:07.545Z,25.16
2022-07-28T04:00:45.415Z,25.16
2022-07-28T04:01:21.866Z,25.16
2022-07-28T04:01:58.464Z,25.16
2022-07-28T04:02:36.924Z,25.16
2022-07-28T04:03:35.194Z,25.16
2022-07-28T04:04:14.176Z,25.16
2022-07-28T04:04:51.969Z,25.16
2022-07-28T04:05:29.095Z,25.16
2022-07-28T04:06:05.497Z,25.16
2022-07-28T04:06:41.821Z,25.16
2022-07-28T04:07:18.546Z,25.16
2022-07-28T04:07:54.289Z,25.16
2022-07-28T04:08:31.097Z,25.15
2022-07-28T04:09:07.553Z,25.16
2022-07-28T04:09:45.277Z,25.14
2022-07-28T04:10:22.117Z,25.16
2022-07-28T04:10:58.356Z,25.16
2022-07-28T04:11:40.078Z,25.16
2022-07-28T04:12:17.662Z,25.15
2022-07-28T04:12:58.584Z,25.14
2022-07-28T04:13:38.239Z,25.14
2022-07-28T04:14:17.070Z,25.15
2022-07-28T04:14:56.849Z,25.15
2022-07-28T04:15:39.492Z,25.14
2022-07-28T04:16:22.315Z,25.14
2022-07-28T04:17:01.933Z,25.14
2022-07-28T04:18:20.536Z,25.15
2022-07-28T04:18:57.507Z,25.14
2022-07-28T04:19:35.378Z,25.14
2022-07-28T04:20:12.276Z,25.15
2022-07-28T04:20:49.480Z,25.15
2022-07-28T04:21:26.108Z,25.15
2022-07-28T04:22:03.431Z,25.14
2022-07-28T04:22:49.126Z,25.14
2022-07-28T04:23:27.160Z,25.13
2022-07-28T04:24:03.916Z,25.14
2022-07-28T04:24:40.326Z,25.15
2022-07-28T04:25:18.034Z,25.14
2022-07-28T04:25:55.088Z,25.14
2022-07-28T04:26:32.506Z,25.14
2022-07-28T04:27:09.313Z,25.13
2022-07-28T04:27:45.602Z,25.13
2022-07-28T04:28:22.689Z,25.14
2022-07-28T04:28:59.170Z,25.14
2022-07-28T04:29:40.829Z,25.13
2022-07-28T04:30:18.906Z,25.14
2022-07-28T04:30:58.961Z,25.14
2022-07-28T04:31:37.249Z,25.15
2022-07-28T04:32:14.432Z,25.14
2022-07-28T04:32:50.583Z,25.13
2022-07-28T04:33:27.606Z,25.13
2022-07-28T04:34:04.933Z,25.14
2022-07-28T04:34:40.709Z,25.14
2022-07-28T04:35:17.639Z,25.14
2022-07-28T04:35:58.649Z,25.14
2022-07-28T04:36:40.484Z,25.13
2022-07-28T04:37:23.999Z,25.13
2022-07-28T04:38:03.723Z,25.13
2022-07-28T04:38:40.750Z,25.14
2022-07-28T04:39:18.260Z,25.14
2022-07-28T04:39:54.811Z,25.13
2022-07-28T04:40:31.620Z,25.13
2022-07-28T04:41:08.979Z,25.13
2022-07-28T04:41:45.193Z,25.13
2022-07-28T04:42:22.210Z,25.12
2022-07-28T04:42:59.319Z,25.14
2022-07-28T04:43:36.225Z,25.13
2022-07-28T04:44:13.499Z,25.14
2022-07-28T04:44:50.636Z,25.14
2022-07-28T04:45:26.964Z,25.13
2022-07-28T04:46:03.630Z,25.13
2022-07-28T04:46:40.883Z,25.14
2022-07-28T04:47:17.268Z,25.13
2022-07-28T04:47:54.123Z,25.13
2022-07-28T04:48:31.062Z,25.13
2022-07-28T04:49:08.040Z,25.13
2022-07-28T04:49:44.905Z,25.12
2022-07-28T04:50:22.619Z,25.13
2022-07-28T04:50:59.804Z,25.13
2022-07-28T04:51:38.201Z,25.13
2022-07-28T04:52:16.232Z,25.13
2022-07-28T04:53:08.981Z,25.13
2022-07-28T04:53:45.431Z,25.13
2022-07-28T04:55:17.936Z,25.14
2022-07-28T04:55:55.655Z,25.13
2022-07-28T04:56:32.316Z,25.13
2022-07-28T04:57:10.452Z,25.13
2022-07-28T04:57:48.843Z,25.14
2022-07-28T04:58:26.484Z,25.14
2022-07-28T04:59:03.984Z,25.13
2022-07-28T04:59:40.593Z,25.14
2022-07-28T05:00:17.811Z,25.13
2022-07-28T05:00:54.208Z,25.12
2022-07-28T05:01:31.472Z,25.14
2022-07-28T05:02:07.559Z,25.14
2022-07-28T05:02:44.038Z,25.14
2022-07-28T05:03:21.675Z,25.13
2022-07-28T05:04:00.764Z,25.13
2022-07-28T05:04:41.149Z,25.13
2022-07-28T05:05:22.137Z,25.13
2022-07-28T05:06:02.280Z,25.13
2022-07-28T05:06:40.524Z,25.12
2022-07-28T05:07:17.272Z,25.13
2022-07-28T05:07:53.802Z,25.13
2022-07-28T05:08:30.841Z,25.14
2022-07-28T05:09:07.425Z,25.13
2022-07-28T05:09:44.498Z,25.14
2022-07-28T05:10:21.960Z,25.13
2022-07-28T05:10:58.329Z,25.13
2022-07-28T05:11:35.301Z,25.13
2022-07-28T05:12:12.360Z,25.14
2022-07-28T05:12:49.440Z,25.13
2022-07-28T05:13:30.439Z,25.14
2022-07-28T05:14:09.736Z,25.13
2022-07-28T05:14:48.265Z,25.14
2022-07-28T05:15:25.946Z,25.13
2022-07-28T05:16:02.663Z,25.14
2022-07-28T05:16:39.910Z,25.14
2022-07-28T05:17:17.001Z,25.14
2022-07-28T05:17:53.323Z,25.13
2022-07-28T05:18:29.152Z,25.14
2022-07-28T05:19:06.026Z,25.14
2022-07-28T05:19:43.310Z,25.14
2022-07-28T05:20:19.345Z,25.15
2022-07-28T05:20:56.516Z,25.14
2022-07-28T05:21:33.436Z,25.15
2022-07-28T05:22:09.753Z,25.14
2022-07-28T05:22:47.052Z,25.15
2022-07-28T05:23:29.166Z,25.15
2022-07-28T05:24:09.156Z,25.15
2022-07-28T05:24:53.007Z,25.14
2022-07-28T05:25:30.192Z,25.14
2022-07-28T05:26:06.705Z,25.15
2022-07-28T05:26:43.884Z,25.14
2022-07-28T05:27:19.651Z,25.15
2022-07-28T05:27:55.694Z,25.15
2022-07-28T05:28:32.776Z,25.14
2022-07-28T05:29:10.047Z,25.14
2022-07-28T05:29:48.061Z,25.15
2022-07-28T05:30:24.504Z,25.15
2022-07-28T05:31:01.984Z,25.15
2022-07-28T05:31:39.564Z,25.14
2022-07-28T05:32:17.904Z,25.14
2022-07-28T05:33:03.135Z,25.15
2022-07-28T05:34:39.442Z,25.15
2022-07-28T05:35:17.115Z,25.14
2022-07-28T05:35:55.980Z,25.14
2022-07-28T05:36:36.266Z,25.14
2022-07-28T05:37:16.586Z,25.14
2022-07-28T05:37:52.824Z,25.15
2022-07-28T05:38:29.538Z,25.14
2022-07-28T05:39:06.719Z,25.14
2022-07-28T05:39:43.739Z,25.14
2022-07-28T05:40:21.023Z,25.14
2022-07-28T05:40:57.758Z,25.14
2022-07-28T05:41:34.574Z,25.13
2022-07-28T05:42:10.766Z,25.14
2022-07-28T05:42:46.710Z,25.13
2022-07-28T05:43:23.966Z,25.13
2022-07-28T05:43:59.715Z,25.13
2022-07-28T05:44:38.458Z,25.13
2022-07-28T05:45:15.695Z,25.14
2022-07-28T05:45:53.114Z,25.14
2022-07-28T05:46:29.858Z,25.14
2022-07-28T05:47:06.214Z,25.14
2022-07-28T05:47:42.668Z,25.14
2022-07-28T05:48:19.166Z,25.15
2022-07-28T05:48:57.306Z,25.15
2022-07-28T05:49:34.808Z,25.15
2022-07-28T05:50:12.787Z,25.14
2022-07-28T05:51:03.841Z,25.13
2022-07-28T05:51:41.926Z,25.14
2022-07-28T05:52:18.139Z,25.15
2022-07-28T05:52:54.043Z,25.15
2022-07-28T05:53:30.249Z,25.14
2022-07-28T05:54:06.410Z,25.15
2022-07-28T05:54:43.526Z,25.15
2022-07-28T05:55:21.018Z,25.16
2022-07-28T05:56:00.050Z,25.16
2022-07-28T05:56:41.230Z,25.15
2022-07-28T05:57:20.049Z,25.16
2022-07-28T05:58:01.321Z,25.16
2022-07-28T05:58:37.412Z,25.15
2022-07-28T05:59:14.041Z,25.14
2022-07-28T05:59:51.487Z,25.16
2022-07-28T06:00:28.425Z,25.15
2022-07-28T06:01:04.954Z,25.16
2022-07-28T06:01:42.126Z,25.15
2022-07-28T06:02:19.320Z,25.15
2022-07-28T06:02:58.336Z,25.15
2022-07-28T06:03:39.824Z,25.16
2022-07-28T06:04:27.309Z,25.16
2022-07-28T06:05:03.764Z,25.16
2022-07-28T06:05:59.180Z,25.17
2022-07-28T06:06:39.567Z,25.16
2022-07-28T06:07:16.387Z,25.17
2022-07-28T06:07:52.371Z,25.16
2022-07-28T06:08:28.596Z,25.17
2022-07-28T06:09:04.648Z,25.17
2022-07-28T06:09:45.144Z,25.15
2022-07-28T06:10:21.021Z,25.17
2022-07-28T06:10:57.464Z,25.16
2022-07-28T06:11:36.807Z,25.16
2022-07-28T06:12:17.575Z,25.17
2022-07-28T06:12:57.092Z,25.17
2022-07-28T06:14:36.463Z,25.16
2022-07-28T06:15:12.713Z,25.17
2022-07-28T06:15:50.025Z,25.16
2022-07-28T06:16:26.655Z,25.16
2022-07-28T06:17:04.155Z,25.16
2022-07-28T06:17:40.896Z,25.17
2022-07-28T06:18:17.152Z,25.17
2022-07-28T06:18:52.901Z,25.17
2022-07-28T06:19:29.799Z,25.17
2022-07-28T06:20:06.993Z,25.18
2022-07-28T06:20:43.009Z,25.18
2022-07-28T06:21:20.015Z,25.18
2022-07-28T06:21:57.144Z,25.17
2022-07-28T06:22:35.752Z,25.17
2022-07-28T06:23:16.334Z,25.17
2022-07-28T06:23:53.566Z,25.17
2022-07-28T06:24:31.000Z,25.18
2022-07-28T06:25:08.394Z,25.17
2022-07-28T06:25:45.712Z,25.18
2022-07-28T06:26:23.936Z,25.18
2022-07-28T06:27:04.775Z,25.18
2022-07-28T06:27:46.472Z,25.18
2022-07-28T06:28:26.925Z,25.18
2022-07-28T06:29:08.582Z,25.18
2022-07-28T06:29:47.694Z,25.17
2022-07-28T06:30:24.824Z,25.18
2022-07-28T06:31:01.665Z,25.17
2022-07-28T06:31:39.412Z,25.18
2022-07-28T06:32:18.055Z,25.18
2022-07-28T06:32:58.508Z,25.18
2022-07-28T06:33:42.704Z,25.18
2022-07-28T06:34:25.872Z,25.19
2022-07-28T06:35:11.936Z,25.19
2022-07-28T06:35:51.664Z,25.18
2022-07-28T06:36:33.897Z,25.19
2022-07-28T06:37:18.373Z,25.18
2022-07-28T06:37:59.559Z,25.18
2022-07-28T06:38:47.579Z,25.18
2022-07-28T06:39:23.360Z,25.19
2022-07-28T06:40:00.246Z,25.19
2022-07-28T06:40:37.600Z,25.18
2022-07-28T06:41:17.182Z,25.18
2022-07-28T06:41:52.198Z,25.19
2022-07-28T06:42:23.620Z,25.18
2022-07-28T06:42:55.047Z,25.19
2022-07-28T06:43:26.478Z,25.19
2022-07-28T06:43:57.907Z,25.18
2022-07-28T06:44:48.278Z,25.18
2022-07-28T06:45:21.719Z,25.19
2022-07-28T06:45:53.309Z,25.18
2022-07-28T06:46:24.723Z,25.18
2022-07-28T06:46:56.202Z,25.19
2022-07-28T06:47:27.640Z,25.19
2022-07-28T06:47:59.037Z,25.19
2022-07-28T06:48:30.365Z,25.19
2022-07-28T06:49:01.749Z,25.18
2022-07-28T06:49:33.316Z,25.18
2022-07-28T06:50:04.710Z,25.18
2022-07-28T06:50:36.105Z,25.18
2022-07-28T06:51:07.509Z,25.18
2022-07-28T06:51:38.825Z,25.17
2022-07-28T06:52:10.232Z,25.18
2022-07-28T06:52:41.658Z,25.18
2022-07-28T06:53:13.055Z,25.19
2022-07-28T06:53:44.407Z,25.18
2022-07-28T06:54:17.859Z,25.19
2022-07-28T06:54:49.931Z,25.18
2022-07-28T06:55:21.271Z,25.18
2022-07-28T06:55:53.675Z,25.18
2022-07-28T06:56:25.015Z,25.18
2022-07-28T06:56:56.778Z,25.18
2022-07-28T06:57:33.684Z,25.18
2022-07-28T06:58:05.349Z,25.18
2022-07-28T06:58:36.780Z,25.19
2022-07-28T06:59:08.173Z,25.19
2022-07-28T06:59:39.539Z,25.18
2022-07-28T07:00:10.968Z,25.19
2022-07-28T07:00:42.390Z,25.18
2022-07-28T07:01:13.854Z,25.18
2022-07-28T07:01:45.231Z,25.19
2022-07-28T07:02:16.587Z,25.19
2022-07-28T07:02:48.903Z,25.19
2022-07-28T07:03:20.299Z,25.18
2022-07-28T07:03:51.635Z,25.19
2022-07-28T07:04:23.123Z,25.18
2022-07-28T07:04:54.516Z,25.19
2022-07-28T07:05:25.929Z,25.18
2022-07-28T07:05:57.328Z,25.19
2022-07-28T07:06:28.708Z,25.19
2022-07-28T07:07:00.092Z,25.18
2022-07-28T07:07:31.461Z,25.18
2022-07-28T07:08:02.802Z,25.18
2022-07-28T07:08:34.277Z,25.19
2022-07-28T07:09:05.664Z,25.19
2022-07-28T07:09:37.051Z,25.18
2022-07-28T07:10:08.561Z,25.18
2022-07-28T07:10:39.921Z,25.19
2022-07-28T07:11:11.246Z,25.19
2022-07-28T07:11:42.554Z,25.19
2022-07-28T07:12:13.935Z,25.18
2022-07-28T07:12:45.253Z,25.18
2022-07-28T07:13:16.656Z,25.20
2022-07-28T07:13:48.005Z,25.18
2022-07-28T07:14:19.579Z,25.19
2022-07-28T07:14:51.154Z,25.19
2022-07-28T07:15:22.549Z,25.20
2022-07-28T07:15:53.920Z,25.19
2022-07-28T07:16:25.413Z,25.19
2022-07-28T07:16:56.885Z,25.20
2022-07-28T07:17:28.238Z,25.19
2022-07-28T07:17:59.550Z,25.19
2022-07-28T07:18:30.882Z,25.19
2022-07-28T07:19:05.812Z,25.19
2022-07-28T07:19:38.409Z,25.18
2022-07-28T07:20:09.734Z,25.18
2022-07-28T07:20:41.094Z,25.19
2022-07-28T07:21:12.745Z,25.19
2022-07-28T07:21:44.103Z,25.19
2022-07-28T07:22:15.463Z,25.19
2022-07-28T07:22:46.891Z,25.19
2022-07-28T07:23:18.375Z,25.20
2022-07-28T07:23:49.876Z,25.19
2022-07-28T07:24:21.357Z,25.18
2022-07-28T07:24:57.157Z,25.19
2022-07-28T07:25:29.323Z,25.19
2022-07-28T07:26:00.741Z,25.19
2022-07-28T07:26:32.177Z,25.19
2022-07-28T07:27:03.520Z,25.19
2022-07-28T07:27:34.904Z,25.19
2022-07-28T07:28:06.213Z,25.19
2022-07-28T07:28:37.600Z,25.19
2022-07-28T07:29:08.898Z,25.19
2022-07-28T07:29:40.367Z,25.19
2022-07-28T07:30:11.736Z,25.20
2022-07-28T07:30:43.117Z,25.19
2022-07-28T07:31:14.610Z,25.20
2022-07-28T07:31:46.300Z,25.19
2022-07-28T07:32:23.990Z,25.20
2022-07-28T07:32:55.360Z,25.19
2022-07-28T07:33:26.736Z,25.20
2022-07-28T07:33:58.080Z,25.19
2022-07-28T07:34:29.454Z,25.19
2022-07-28T07:35:00.950Z,25.20
2022-07-28T07:35:32.373Z,25.19
2022-07-28T07:36:03.998Z,25.19
2022-07-28T07:36:35.385Z,25.18
2022-07-28T07:37:06.775Z,25.20
2022-07-28T07:37:38.174Z,25.20
2022-07-28T07:38:09.520Z,25.19
2022-07-28T07:38:40.941Z,25.19
2022-07-28T07:39:12.358Z,25.19
2022-07-28T07:39:43.676Z,25.20
2022-07-28T07:40:15.203Z,25.18
2022-07-28T07:40:46.664Z,25.18
2022-07-28T07:41:18.173Z,25.19
2022-07-28T07:41:49.542Z,25.20
2022-07-28T07:42:21.091Z,25.19
2022-07-28T07:42:56.192Z,25.19
2022-07-28T07:43:27.642Z,25.19
2022-07-28T07:43:59.064Z,25.19
2022-07-28T07:44:30.466Z,25.19
2022-07-28T07:45:01.882Z,25.19
2022-07-28T07:45:33.350Z,25.19
2022-07-28T07:46:04.843Z,25.20
2022-07-28T07:46:36.470Z,25.19
2022-07-28T07:47:08.035Z,25.19
2022-07-28T07:47:40.654Z,25.20
2022-07-28T07:48:12.057Z,25.20
2022-07-28T07:48:43.635Z,25.20
2022-07-28T07:49:15.277Z,25.19
2022-07-28T07:49:47.029Z,25.20
2022-07-28T07:50:18.529Z,25.20
2022-07-28T07:50:53.810Z,25.20
2022-07-28T07:51:25.735Z,25.20
2022-07-28T07:51:57.289Z,25.20
2022-07-28T07:52:31.482Z,25.20
2022-07-28T07:53:02.881Z,25.20
2022-07-28T07:53:34.404Z,25.20
2022-07-28T07:54:05.958Z,25.20
2022-07-28T07:54:37.452Z,25.21
2022-07-28T07:55:08.952Z,25.20
2022-07-28T07:55:40.360Z,25.20
2022-07-28T07:56:11.822Z,25.20
2022-07-28T07:56:46.063Z,25.20
2022-07-28T07:57:17.600Z,25.19
2022-07-28T07:57:49.106Z,25.21
2022-07-28T07:58:20.538Z,25.20
2022-07-28T07:58:56.724Z,25.20
2022-07-28T07:59:28.539Z,25.20
2022-07-28T08:00:00.027Z,25.20
2022-07-28T08:00:31.522Z,25.20
2022-07-28T08:01:02.903Z,25.20
2022-07-28T08:01:34.323Z,25.21
2022-07-28T08:02:05.777Z,25.20
2022-07-28T08:02:37.311Z,25.20
2022-07-28T08:03:11.051Z,25.20
2022-07-28T08:03:45.561Z,25.20
2022-07-28T08:04:21.768Z,25.20
2022-07-28T08:04:57.032Z,25.21
2022-07-28T08:05:35.426Z,25.20
2022-07-28T08:06:08.065Z,25.20
2022-07-28T08:06:39.821Z,25.20
2022-07-28T08:07:11.346Z,25.20
2022-07-28T08:07:43.456Z,25.20
2022-07-28T08:08:14.880Z,25.19
2022-07-28T08:08:48.435Z,25.19
2022-07-28T08:09:20.121Z,25.20
2022-07-28T08:09:51.552Z,25.20
2022-07-28T08:10:23.227Z,25.19
2022-07-28T08:10:54.697Z,25.20
2022-07-28T08:11:26.195Z,25.20
2022-07-28T08:11:57.674Z,25.21
2022-07-28T08:12:29.163Z,25.20
2022-07-28T08:13:00.717Z,25.20
2022-07-28T08:13:32.073Z,25.20
2022-07-28T08:14:03.532Z,25.20